sensor_id;sensor_type;location;lat;lon;timestamp;P1;durP1;ratioP1;P2;durP2;ratioP2
20505;SDS011;10411;48.148;7.704;2023-02-02T00:01:30;18.03;;;16.83;;
20505;SDS011;10411;48.148;7.704;2023-02-02T00:03:56;17.70;;;16.60;;
20505;SDS011;10411;48.148;7.704;2023-02-02T00:06:23;18.10;;;17.00;;
20505;SDS011;10411;48.148;7.704;2023-02-02T00:08:49;17.43;;;16.33;;
20505;SDS011;10411;48.148;7.704;2023-02-02T00:11:16;18.13;;;16.90;;
20505;SDS011;10411;48.148;7.704;2023-02-02T00:13:42;17.13;;;16.17;;
20505;SDS011;10411;48.148;7.704;2023-02-02T00:18:47;17.53;;;16.43;;
20505;SDS011;10411;48.148;7.704;2023-02-02T00:21:13;19.17;;;17.60;;
20505;SDS011;10411;48.148;7.704;2023-02-02T00:23:39;17.10;;;16.20;;
20505;SDS011;10411;48.148;7.704;2023-02-02T00:26:05;17.80;;;16.67;;
20505;SDS011;10411;48.148;7.704;2023-02-02T00:28:31;17.80;;;16.73;;
20505;SDS011;10411;48.148;7.704;2023-02-02T00:30:56;17.40;;;16.30;;
20505;SDS011;10411;48.148;7.704;2023-02-02T00:33:22;17.33;;;16.43;;
20505;SDS011;10411;48.148;7.704;2023-02-02T00:35:50;17.00;;;16.00;;
20505;SDS011;10411;48.148;7.704;2023-02-02T00:38:16;17.23;;;16.20;;
20505;SDS011;10411;48.148;7.704;2023-02-02T00:40:42;16.80;;;15.90;;
20505;SDS011;10411;48.148;7.704;2023-02-02T00:43:08;16.60;;;15.80;;
20505;SDS011;10411;48.148;7.704;2023-02-02T00:45:34;17.10;;;16.10;;
20505;SDS011;10411;48.148;7.704;2023-02-02T00:48:00;17.40;;;16.40;;
20505;SDS011;10411;48.148;7.704;2023-02-02T00:50:27;16.97;;;15.97;;
20505;SDS011;10411;48.148;7.704;2023-02-02T00:52:53;17.43;;;16.43;;
20505;SDS011;10411;48.148;7.704;2023-02-02T00:55:19;16.80;;;15.90;;
20505;SDS011;10411;48.148;7.704;2023-02-02T00:57:45;17.10;;;16.10;;
20505;SDS011;10411;48.148;7.704;2023-02-02T01:00:15;16.80;;;15.87;;
20505;SDS011;10411;48.148;7.704;2023-02-02T01:02:42;17.00;;;16.10;;
20505;SDS011;10411;48.148;7.704;2023-02-02T01:05:08;17.17;;;16.20;;
20505;SDS011;10411;48.148;7.704;2023-02-02T01:07:35;17.10;;;16.20;;
20505;SDS011;10411;48.148;7.704;2023-02-02T01:10:01;16.80;;;15.90;;
20505;SDS011;10411;48.148;7.704;2023-02-02T01:12:27;16.70;;;15.80;;
20505;SDS011;10411;48.148;7.704;2023-02-02T01:14:53;16.97;;;15.97;;
20505;SDS011;10411;48.148;7.704;2023-02-02T01:17:19;17.20;;;16.10;;
20505;SDS011;10411;48.148;7.704;2023-02-02T01:19:45;16.97;;;15.97;;
20505;SDS011;10411;48.148;7.704;2023-02-02T01:22:11;17.40;;;16.40;;
20505;SDS011;10411;48.148;7.704;2023-02-02T01:24:37;18.00;;;16.83;;
20505;SDS011;10411;48.148;7.704;2023-02-02T01:27:03;17.90;;;16.80;;
20505;SDS011;10411;48.148;7.704;2023-02-02T01:29:29;18.00;;;16.83;;
20505;SDS011;10411;48.148;7.704;2023-02-02T01:31:55;18.30;;;17.10;;
20505;SDS011;10411;48.148;7.704;2023-02-02T01:34:20;17.80;;;16.70;;
20505;SDS011;10411;48.148;7.704;2023-02-02T01:36:46;17.40;;;16.50;;
20505;SDS011;10411;48.148;7.704;2023-02-02T01:39:12;17.67;;;16.63;;
20505;SDS011;10411;48.148;7.704;2023-02-02T01:41:39;17.70;;;16.50;;
20505;SDS011;10411;48.148;7.704;2023-02-02T01:44:49;17.63;;;16.53;;
20505;SDS011;10411;48.148;7.704;2023-02-02T01:46:51;17.30;;;16.40;;
20505;SDS011;10411;48.148;7.704;2023-02-02T01:49:18;17.40;;;16.47;;
20505;SDS011;10411;48.148;7.704;2023-02-02T01:51:49;17.73;;;16.63;;
20505;SDS011;10411;48.148;7.704;2023-02-02T01:54:23;17.67;;;16.67;;
20505;SDS011;10411;48.148;7.704;2023-02-02T01:56:51;17.10;;;16.10;;
20505;SDS011;10411;48.148;7.704;2023-02-02T01:59:18;16.97;;;16.07;;
20505;SDS011;10411;48.148;7.704;2023-02-02T02:01:45;17.90;;;16.80;;
20505;SDS011;10411;48.148;7.704;2023-02-02T02:04:12;17.33;;;16.33;;
20505;SDS011;10411;48.148;7.704;2023-02-02T02:06:38;17.37;;;16.47;;
20505;SDS011;10411;48.148;7.704;2023-02-02T02:09:05;17.43;;;16.33;;
20505;SDS011;10411;48.148;7.704;2023-02-02T02:11:32;17.27;;;16.37;;
20505;SDS011;10411;48.148;7.704;2023-02-02T02:14:00;17.23;;;16.30;;
20505;SDS011;10411;48.148;7.704;2023-02-02T02:25:59;17.80;;;16.80;;
20505;SDS011;10411;48.148;7.704;2023-02-02T02:31:35;17.77;;;16.77;;
20505;SDS011;10411;48.148;7.704;2023-02-02T02:34:04;17.83;;;16.83;;
20505;SDS011;10411;48.148;7.704;2023-02-02T02:36:35;17.57;;;16.57;;
20505;SDS011;10411;48.148;7.704;2023-02-02T02:41:34;17.40;;;16.50;;
20505;SDS011;10411;48.148;7.704;2023-02-02T02:44:05;17.47;;;16.47;;
20505;SDS011;10411;48.148;7.704;2023-02-02T02:46:33;17.90;;;17.00;;
20505;SDS011;10411;48.148;7.704;2023-02-02T02:48:59;17.53;;;16.53;;
20505;SDS011;10411;48.148;7.704;2023-02-02T02:51:45;17.27;;;16.37;;
20505;SDS011;10411;48.148;7.704;2023-02-02T02:54:13;17.73;;;16.73;;
20505;SDS011;10411;48.148;7.704;2023-02-02T02:56:43;17.40;;;16.50;;
20505;SDS011;10411;48.148;7.704;2023-02-02T03:01:50;17.33;;;16.43;;
20505;SDS011;10411;48.148;7.704;2023-02-02T03:04:26;17.23;;;16.30;;
20505;SDS011;10411;48.148;7.704;2023-02-02T03:09:25;17.53;;;16.63;;
20505;SDS011;10411;48.148;7.704;2023-02-02T03:11:53;17.50;;;16.57;;
20505;SDS011;10411;48.148;7.704;2023-02-02T03:14:19;17.63;;;16.57;;
20505;SDS011;10411;48.148;7.704;2023-02-02T03:16:45;17.63;;;16.63;;
20505;SDS011;10411;48.148;7.704;2023-02-02T03:19:11;17.93;;;16.83;;
20505;SDS011;10411;48.148;7.704;2023-02-02T03:21:37;18.20;;;16.90;;
20505;SDS011;10411;48.148;7.704;2023-02-02T03:24:03;18.00;;;16.87;;
20505;SDS011;10411;48.148;7.704;2023-02-02T03:26:29;18.40;;;17.40;;
20505;SDS011;10411;48.148;7.704;2023-02-02T03:28:55;18.27;;;17.17;;
20505;SDS011;10411;48.148;7.704;2023-02-02T03:31:21;18.40;;;17.10;;
20505;SDS011;10411;48.148;7.704;2023-02-02T03:33:48;17.80;;;16.80;;
20505;SDS011;10411;48.148;7.704;2023-02-02T03:36:13;17.70;;;16.70;;
20505;SDS011;10411;48.148;7.704;2023-02-02T03:38:39;17.73;;;16.63;;
20505;SDS011;10411;48.148;7.704;2023-02-02T03:41:05;17.27;;;16.37;;
20505;SDS011;10411;48.148;7.704;2023-02-02T03:43:31;17.47;;;16.57;;
20505;SDS011;10411;48.148;7.704;2023-02-02T03:45:58;17.50;;;16.50;;
20505;SDS011;10411;48.148;7.704;2023-02-02T03:48:25;17.90;;;16.70;;
20505;SDS011;10411;48.148;7.704;2023-02-02T03:50:51;17.70;;;16.70;;
20505;SDS011;10411;48.148;7.704;2023-02-02T03:53:17;17.80;;;16.70;;
20505;SDS011;10411;48.148;7.704;2023-02-02T03:55:43;17.30;;;16.30;;
20505;SDS011;10411;48.148;7.704;2023-02-02T03:58:09;17.40;;;16.30;;
20505;SDS011;10411;48.148;7.704;2023-02-02T04:00:35;17.87;;;16.80;;
20505;SDS011;10411;48.148;7.704;2023-02-02T04:03:02;17.53;;;16.63;;
20505;SDS011;10411;48.148;7.704;2023-02-02T04:05:28;17.53;;;16.53;;
20505;SDS011;10411;48.148;7.704;2023-02-02T04:07:54;17.83;;;16.90;;
20505;SDS011;10411;48.148;7.704;2023-02-02T04:10:20;18.27;;;17.17;;
20505;SDS011;10411;48.148;7.704;2023-02-02T04:12:46;17.83;;;16.60;;
20505;SDS011;10411;48.148;7.704;2023-02-02T04:15:12;17.20;;;16.20;;
20505;SDS011;10411;48.148;7.704;2023-02-02T04:17:38;17.77;;;16.67;;
20505;SDS011;10411;48.148;7.704;2023-02-02T04:20:04;18.63;;;17.43;;
20505;SDS011;10411;48.148;7.704;2023-02-02T04:22:30;18.30;;;17.20;;
20505;SDS011;10411;48.148;7.704;2023-02-02T04:24:56;18.53;;;17.33;;
20505;SDS011;10411;48.148;7.704;2023-02-02T04:27:22;17.93;;;16.80;;
20505;SDS011;10411;48.148;7.704;2023-02-02T04:29:48;18.47;;;17.30;;
20505;SDS011;10411;48.148;7.704;2023-02-02T04:32:14;18.77;;;17.67;;
20505;SDS011;10411;48.148;7.704;2023-02-02T04:34:41;18.27;;;17.20;;
20505;SDS011;10411;48.148;7.704;2023-02-02T04:37:07;18.43;;;17.07;;
20505;SDS011;10411;48.148;7.704;2023-02-02T04:39:33;18.20;;;17.10;;
20505;SDS011;10411;48.148;7.704;2023-02-02T04:41:59;18.20;;;17.10;;
20505;SDS011;10411;48.148;7.704;2023-02-02T04:44:25;19.90;;;18.60;;
20505;SDS011;10411;48.148;7.704;2023-02-02T04:46:51;19.10;;;17.90;;
20505;SDS011;10411;48.148;7.704;2023-02-02T04:49:17;18.50;;;17.30;;
20505;SDS011;10411;48.148;7.704;2023-02-02T04:51:43;17.40;;;16.40;;
20505;SDS011;10411;48.148;7.704;2023-02-02T04:54:09;17.83;;;16.73;;
20505;SDS011;10411;48.148;7.704;2023-02-02T04:56:35;17.37;;;16.37;;
20505;SDS011;10411;48.148;7.704;2023-02-02T04:59:01;17.60;;;16.50;;
20505;SDS011;10411;48.148;7.704;2023-02-02T05:01:27;17.70;;;16.40;;
20505;SDS011;10411;48.148;7.704;2023-02-02T05:03:54;18.07;;;16.97;;
20505;SDS011;10411;48.148;7.704;2023-02-02T05:06:20;17.73;;;16.63;;
20505;SDS011;10411;48.148;7.704;2023-02-02T05:08:46;17.80;;;16.70;;
20505;SDS011;10411;48.148;7.704;2023-02-02T05:11:14;17.67;;;16.47;;
20505;SDS011;10411;48.148;7.704;2023-02-02T05:13:43;17.70;;;16.70;;
20505;SDS011;10411;48.148;7.704;2023-02-02T05:16:10;18.30;;;17.03;;
20505;SDS011;10411;48.148;7.704;2023-02-02T05:18:35;18.17;;;17.07;;
20505;SDS011;10411;48.148;7.704;2023-02-02T05:21:02;18.10;;;16.80;;
20505;SDS011;10411;48.148;7.704;2023-02-02T05:23:28;18.00;;;16.80;;
20505;SDS011;10411;48.148;7.704;2023-02-02T05:25:55;17.90;;;16.70;;
20505;SDS011;10411;48.148;7.704;2023-02-02T05:28:21;17.83;;;16.83;;
20505;SDS011;10411;48.148;7.704;2023-02-02T05:30:47;18.07;;;17.07;;
20505;SDS011;10411;48.148;7.704;2023-02-02T05:33:13;17.97;;;16.97;;
20505;SDS011;10411;48.148;7.704;2023-02-02T05:35:39;17.53;;;16.63;;
20505;SDS011;10411;48.148;7.704;2023-02-02T05:38:05;17.90;;;16.90;;
20505;SDS011;10411;48.148;7.704;2023-02-02T05:40:31;17.67;;;16.57;;
20505;SDS011;10411;48.148;7.704;2023-02-02T05:42:57;17.90;;;16.80;;
20505;SDS011;10411;48.148;7.704;2023-02-02T05:45:23;17.90;;;16.90;;
20505;SDS011;10411;48.148;7.704;2023-02-02T05:47:52;17.90;;;16.90;;
20505;SDS011;10411;48.148;7.704;2023-02-02T05:50:18;18.00;;;16.90;;
20505;SDS011;10411;48.148;7.704;2023-02-02T05:52:44;18.00;;;16.90;;
20505;SDS011;10411;48.148;7.704;2023-02-02T05:55:11;18.30;;;17.10;;
20505;SDS011;10411;48.148;7.704;2023-02-02T05:57:37;17.80;;;16.90;;
20505;SDS011;10411;48.148;7.704;2023-02-02T06:00:03;18.37;;;17.27;;
20505;SDS011;10411;48.148;7.704;2023-02-02T06:02:29;18.53;;;17.33;;
20505;SDS011;10411;48.148;7.704;2023-02-02T06:04:55;17.97;;;16.93;;
20505;SDS011;10411;48.148;7.704;2023-02-02T06:07:21;18.30;;;17.30;;
20505;SDS011;10411;48.148;7.704;2023-02-02T06:09:47;18.13;;;17.00;;
20505;SDS011;10411;48.148;7.704;2023-02-02T06:12:13;18.80;;;17.70;;
20505;SDS011;10411;48.148;7.704;2023-02-02T06:14:39;18.80;;;17.30;;
20505;SDS011;10411;48.148;7.704;2023-02-02T06:17:05;17.57;;;16.67;;
20505;SDS011;10411;48.148;7.704;2023-02-02T06:19:31;17.70;;;16.50;;
20505;SDS011;10411;48.148;7.704;2023-02-02T06:21:57;17.97;;;16.97;;
20505;SDS011;10411;48.148;7.704;2023-02-02T06:24:23;18.20;;;16.97;;
20505;SDS011;10411;48.148;7.704;2023-02-02T06:26:49;18.30;;;17.10;;
20505;SDS011;10411;48.148;7.704;2023-02-02T06:29:15;18.23;;;17.23;;
20505;SDS011;10411;48.148;7.704;2023-02-02T06:31:41;19.17;;;17.87;;
20505;SDS011;10411;48.148;7.704;2023-02-02T06:34:08;19.13;;;17.83;;
20505;SDS011;10411;48.148;7.704;2023-02-02T06:39:50;18.13;;;16.93;;
20505;SDS011;10411;48.148;7.704;2023-02-02T06:42:16;18.47;;;17.40;;
20505;SDS011;10411;48.148;7.704;2023-02-02T06:44:42;17.43;;;16.43;;
20505;SDS011;10411;48.148;7.704;2023-02-02T06:47:08;17.80;;;16.80;;
20505;SDS011;10411;48.148;7.704;2023-02-02T06:49:34;18.60;;;17.40;;
20505;SDS011;10411;48.148;7.704;2023-02-02T06:51:59;17.97;;;16.87;;
20505;SDS011;10411;48.148;7.704;2023-02-02T06:54:26;17.90;;;16.90;;
20505;SDS011;10411;48.148;7.704;2023-02-02T07:02:15;18.50;;;17.40;;
20505;SDS011;10411;48.148;7.704;2023-02-02T07:11:21;18.30;;;17.10;;
20505;SDS011;10411;48.148;7.704;2023-02-02T07:13:48;19.00;;;17.60;;
20505;SDS011;10411;48.148;7.704;2023-02-02T07:16:15;18.40;;;17.37;;
20505;SDS011;10411;48.148;7.704;2023-02-02T07:18:41;18.50;;;17.40;;
20505;SDS011;10411;48.148;7.704;2023-02-02T07:21:08;18.77;;;17.57;;
20505;SDS011;10411;48.148;7.704;2023-02-02T07:23:34;18.27;;;17.17;;
20505;SDS011;10411;48.148;7.704;2023-02-02T07:26:03;18.60;;;17.43;;
20505;SDS011;10411;48.148;7.704;2023-02-02T07:28:29;19.07;;;17.87;;
20505;SDS011;10411;48.148;7.704;2023-02-02T07:30:55;18.07;;;17.07;;
20505;SDS011;10411;48.148;7.704;2023-02-02T07:33:22;18.27;;;17.17;;
20505;SDS011;10411;48.148;7.704;2023-02-02T07:35:48;18.60;;;17.40;;
20505;SDS011;10411;48.148;7.704;2023-02-02T07:38:14;18.23;;;17.13;;
20505;SDS011;10411;48.148;7.704;2023-02-02T07:40:40;18.53;;;17.20;;
20505;SDS011;10411;48.148;7.704;2023-02-02T07:43:06;18.33;;;16.90;;
20505;SDS011;10411;48.148;7.704;2023-02-02T07:45:32;18.10;;;16.90;;
20505;SDS011;10411;48.148;7.704;2023-02-02T07:47:58;18.13;;;16.83;;
20505;SDS011;10411;48.148;7.704;2023-02-02T07:50:25;17.70;;;16.60;;
20505;SDS011;10411;48.148;7.704;2023-02-02T07:52:51;17.33;;;16.33;;
20505;SDS011;10411;48.148;7.704;2023-02-02T07:55:18;17.17;;;16.17;;
20505;SDS011;10411;48.148;7.704;2023-02-02T07:57:44;17.70;;;16.70;;
20505;SDS011;10411;48.148;7.704;2023-02-02T08:00:10;17.60;;;16.50;;
20505;SDS011;10411;48.148;7.704;2023-02-02T08:02:36;17.70;;;16.60;;
20505;SDS011;10411;48.148;7.704;2023-02-02T08:05:02;17.60;;;16.40;;
20505;SDS011;10411;48.148;7.704;2023-02-02T08:07:30;17.40;;;16.30;;
20505;SDS011;10411;48.148;7.704;2023-02-02T08:09:58;17.27;;;16.27;;
20505;SDS011;10411;48.148;7.704;2023-02-02T08:12:24;17.30;;;16.20;;
20505;SDS011;10411;48.148;7.704;2023-02-02T08:14:50;17.03;;;16.03;;
20505;SDS011;10411;48.148;7.704;2023-02-02T08:17:17;16.97;;;15.97;;
20505;SDS011;10411;48.148;7.704;2023-02-02T08:19:43;17.10;;;16.10;;
20505;SDS011;10411;48.148;7.704;2023-02-02T08:22:08;17.33;;;16.23;;
20505;SDS011;10411;48.148;7.704;2023-02-02T08:24:34;17.13;;;16.10;;
20505;SDS011;10411;48.148;7.704;2023-02-02T08:27:05;17.30;;;16.20;;
20505;SDS011;10411;48.148;7.704;2023-02-02T08:29:31;18.50;;;17.10;;
20505;SDS011;10411;48.148;7.704;2023-02-02T08:31:57;18.37;;;17.10;;
20505;SDS011;10411;48.148;7.704;2023-02-02T08:34:24;18.17;;;16.87;;
20505;SDS011;10411;48.148;7.704;2023-02-02T08:36:50;17.17;;;16.17;;
20505;SDS011;10411;48.148;7.704;2023-02-02T08:39:16;17.10;;;16.00;;
20505;SDS011;10411;48.148;7.704;2023-02-02T08:41:42;18.10;;;16.73;;
20505;SDS011;10411;48.148;7.704;2023-02-02T08:44:10;17.23;;;16.10;;
20505;SDS011;10411;48.148;7.704;2023-02-02T08:46:36;16.87;;;15.87;;
20505;SDS011;10411;48.148;7.704;2023-02-02T08:49:02;17.70;;;16.60;;
20505;SDS011;10411;48.148;7.704;2023-02-02T08:51:28;17.40;;;16.30;;
20505;SDS011;10411;48.148;7.704;2023-02-02T08:53:54;17.00;;;16.00;;
20505;SDS011;10411;48.148;7.704;2023-02-02T08:56:20;16.90;;;15.90;;
20505;SDS011;10411;48.148;7.704;2023-02-02T08:58:50;17.17;;;16.17;;
20505;SDS011;10411;48.148;7.704;2023-02-02T09:01:17;17.23;;;16.23;;
20505;SDS011;10411;48.148;7.704;2023-02-02T09:03:43;17.23;;;16.23;;
20505;SDS011;10411;48.148;7.704;2023-02-02T09:06:10;17.33;;;16.30;;
20505;SDS011;10411;48.148;7.704;2023-02-02T09:08:37;17.70;;;16.50;;
20505;SDS011;10411;48.148;7.704;2023-02-02T09:11:07;18.17;;;17.00;;
20505;SDS011;10411;48.148;7.704;2023-02-02T09:13:34;17.37;;;16.33;;
20505;SDS011;10411;48.148;7.704;2023-02-02T09:16:01;17.13;;;16.13;;
20505;SDS011;10411;48.148;7.704;2023-02-02T09:18:27;17.80;;;16.60;;
20505;SDS011;10411;48.148;7.704;2023-02-02T09:20:53;17.00;;;15.90;;
20505;SDS011;10411;48.148;7.704;2023-02-02T09:23:19;17.13;;;16.00;;
20505;SDS011;10411;48.148;7.704;2023-02-02T09:25:45;16.70;;;15.70;;
20505;SDS011;10411;48.148;7.704;2023-02-02T09:28:11;17.60;;;16.30;;
20505;SDS011;10411;48.148;7.704;2023-02-02T09:30:37;17.70;;;16.63;;
20505;SDS011;10411;48.148;7.704;2023-02-02T09:33:03;16.80;;;15.90;;
20505;SDS011;10411;48.148;7.704;2023-02-02T09:35:29;17.10;;;16.10;;
20505;SDS011;10411;48.148;7.704;2023-02-02T09:37:55;17.37;;;16.27;;
20505;SDS011;10411;48.148;7.704;2023-02-02T09:40:21;17.43;;;16.30;;
20505;SDS011;10411;48.148;7.704;2023-02-02T09:45:50;17.43;;;16.30;;
20505;SDS011;10411;48.148;7.704;2023-02-02T09:48:24;17.40;;;16.40;;
20505;SDS011;10411;48.148;7.704;2023-02-02T09:50:52;17.97;;;16.70;;
20505;SDS011;10411;48.148;7.704;2023-02-02T09:53:24;17.57;;;16.40;;
20505;SDS011;10411;48.148;7.704;2023-02-02T09:55:53;17.83;;;16.70;;
20505;SDS011;10411;48.148;7.704;2023-02-02T09:58:27;17.73;;;16.60;;
20505;SDS011;10411;48.148;7.704;2023-02-02T10:03:32;18.23;;;17.10;;
20505;SDS011;10411;48.148;7.704;2023-02-02T10:06:02;18.07;;;16.87;;
20505;SDS011;10411;48.148;7.704;2023-02-02T10:08:33;18.37;;;17.17;;
20505;SDS011;10411;48.148;7.704;2023-02-02T10:11:02;19.30;;;17.70;;
20505;SDS011;10411;48.148;7.704;2023-02-02T10:13:30;18.10;;;16.90;;
20505;SDS011;10411;48.148;7.704;2023-02-02T10:16:01;18.33;;;17.07;;
20505;SDS011;10411;48.148;7.704;2023-02-02T10:18:36;18.00;;;16.83;;
20505;SDS011;10411;48.148;7.704;2023-02-02T10:21:17;17.70;;;16.70;;
20505;SDS011;10411;48.148;7.704;2023-02-02T10:23:47;18.17;;;17.07;;
20505;SDS011;10411;48.148;7.704;2023-02-02T10:26:15;18.60;;;17.10;;
20505;SDS011;10411;48.148;7.704;2023-02-02T10:36:49;18.77;;;17.50;;
20505;SDS011;10411;48.148;7.704;2023-02-02T10:41:50;18.37;;;17.17;;
20505;SDS011;10411;48.148;7.704;2023-02-02T10:46:47;17.77;;;16.77;;
20505;SDS011;10411;48.148;7.704;2023-02-02T10:49:18;18.37;;;17.20;;
20505;SDS011;10411;48.148;7.704;2023-02-02T10:51:53;18.10;;;16.90;;
20505;SDS011;10411;48.148;7.704;2023-02-02T10:56:54;18.30;;;17.10;;
20505;SDS011;10411;48.148;7.704;2023-02-02T10:59:23;18.47;;;17.17;;
20505;SDS011;10411;48.148;7.704;2023-02-02T11:01:52;17.70;;;16.70;;
20505;SDS011;10411;48.148;7.704;2023-02-02T11:04:18;17.77;;;16.67;;
20505;SDS011;10411;48.148;7.704;2023-02-02T11:07:03;17.63;;;16.53;;
20505;SDS011;10411;48.148;7.704;2023-02-02T11:09:30;18.23;;;16.90;;
20505;SDS011;10411;48.148;7.704;2023-02-02T11:12:03;17.97;;;16.60;;
20505;SDS011;10411;48.148;7.704;2023-02-02T11:14:39;18.17;;;17.07;;
20505;SDS011;10411;48.148;7.704;2023-02-02T11:17:14;18.63;;;17.43;;
20505;SDS011;10411;48.148;7.704;2023-02-02T11:19:42;18.60;;;17.30;;
20505;SDS011;10411;48.148;7.704;2023-02-02T11:22:14;18.77;;;17.40;;
20505;SDS011;10411;48.148;7.704;2023-02-02T11:24:47;18.37;;;17.07;;
20505;SDS011;10411;48.148;7.704;2023-02-02T11:27:15;18.33;;;17.13;;
20505;SDS011;10411;48.148;7.704;2023-02-02T11:29:46;18.60;;;17.40;;
20505;SDS011;10411;48.148;7.704;2023-02-02T11:34:42;19.50;;;18.10;;
20505;SDS011;10411;48.148;7.704;2023-02-02T11:39:38;21.17;;;19.43;;
20505;SDS011;10411;48.148;7.704;2023-02-02T11:42:05;20.57;;;18.97;;
20505;SDS011;10411;48.148;7.704;2023-02-02T11:44:32;20.40;;;19.00;;
20505;SDS011;10411;48.148;7.704;2023-02-02T11:47:00;19.93;;;18.60;;
20505;SDS011;10411;48.148;7.704;2023-02-02T11:49:26;20.43;;;18.93;;
20505;SDS011;10411;48.148;7.704;2023-02-02T11:51:56;19.33;;;17.93;;
20505;SDS011;10411;48.148;7.704;2023-02-02T11:54:27;19.47;;;18.17;;
20505;SDS011;10411;48.148;7.704;2023-02-02T11:56:53;18.90;;;17.60;;
20505;SDS011;10411;48.148;7.704;2023-02-02T11:59:36;19.60;;;18.03;;
20505;SDS011;10411;48.148;7.704;2023-02-02T12:04:37;19.37;;;17.70;;
20505;SDS011;10411;48.148;7.704;2023-02-02T12:07:17;18.53;;;17.30;;
20505;SDS011;10411;48.148;7.704;2023-02-02T12:09:44;19.63;;;18.13;;
20505;SDS011;10411;48.148;7.704;2023-02-02T12:17:36;19.07;;;17.77;;
20505;SDS011;10411;48.148;7.704;2023-02-02T12:25:38;18.83;;;17.43;;
20505;SDS011;10411;48.148;7.704;2023-02-02T12:30:43;18.20;;;17.00;;
20505;SDS011;10411;48.148;7.704;2023-02-02T12:54:37;17.47;;;16.27;;
20505;SDS011;10411;48.148;7.704;2023-02-02T12:57:09;17.90;;;16.80;;
20505;SDS011;10411;48.148;7.704;2023-02-02T13:12:24;18.30;;;17.10;;
20505;SDS011;10411;48.148;7.704;2023-02-02T13:14:53;18.60;;;17.50;;
20505;SDS011;10411;48.148;7.704;2023-02-02T13:19:49;17.83;;;16.80;;
20505;SDS011;10411;48.148;7.704;2023-02-02T13:22:17;18.20;;;17.03;;
20505;SDS011;10411;48.148;7.704;2023-02-02T13:24:45;17.90;;;16.80;;
20505;SDS011;10411;48.148;7.704;2023-02-02T13:27:14;17.83;;;16.73;;
20505;SDS011;10411;48.148;7.704;2023-02-02T13:29:46;17.53;;;16.53;;
20505;SDS011;10411;48.148;7.704;2023-02-02T13:32:20;17.53;;;16.43;;
20505;SDS011;10411;48.148;7.704;2023-02-02T13:34:55;18.10;;;17.00;;
20505;SDS011;10411;48.148;7.704;2023-02-02T13:39:59;18.20;;;17.00;;
20505;SDS011;10411;48.148;7.704;2023-02-02T13:42:30;18.50;;;17.20;;
20505;SDS011;10411;48.148;7.704;2023-02-02T13:44:59;17.43;;;16.43;;
20505;SDS011;10411;48.148;7.704;2023-02-02T13:47:38;18.23;;;17.10;;
20505;SDS011;10411;48.148;7.704;2023-02-02T13:50:09;18.33;;;17.03;;
20505;SDS011;10411;48.148;7.704;2023-02-02T13:55:24;19.17;;;17.87;;
20505;SDS011;10411;48.148;7.704;2023-02-02T14:00:43;18.30;;;17.13;;
20505;SDS011;10411;48.148;7.704;2023-02-02T14:08:31;18.17;;;16.97;;
20505;SDS011;10411;48.148;7.704;2023-02-02T14:10:58;18.37;;;17.17;;
20505;SDS011;10411;48.148;7.704;2023-02-02T14:16:23;18.80;;;17.37;;
20505;SDS011;10411;48.148;7.704;2023-02-02T14:19:02;20.70;;;18.83;;
20505;SDS011;10411;48.148;7.704;2023-02-02T14:21:56;19.10;;;17.80;;
20505;SDS011;10411;48.148;7.704;2023-02-02T14:24:36;19.77;;;18.07;;
20505;SDS011;10411;48.148;7.704;2023-02-02T14:34:42;17.63;;;16.53;;
20505;SDS011;10411;48.148;7.704;2023-02-02T14:37:13;17.10;;;16.13;;
20505;SDS011;10411;48.148;7.704;2023-02-02T14:45:33;17.20;;;16.20;;
20505;SDS011;10411;48.148;7.704;2023-02-02T14:48:00;17.90;;;16.80;;
20505;SDS011;10411;48.148;7.704;2023-02-02T14:53:20;18.20;;;17.10;;
20505;SDS011;10411;48.148;7.704;2023-02-02T14:55:51;19.00;;;17.67;;
20505;SDS011;10411;48.148;7.704;2023-02-02T14:58:23;18.73;;;17.57;;
20505;SDS011;10411;48.148;7.704;2023-02-02T15:00:54;19.17;;;17.60;;
20505;SDS011;10411;48.148;7.704;2023-02-02T15:03:34;18.80;;;17.60;;
20505;SDS011;10411;48.148;7.704;2023-02-02T15:06:01;18.13;;;17.03;;
20505;SDS011;10411;48.148;7.704;2023-02-02T15:08:27;17.37;;;16.37;;
20505;SDS011;10411;48.148;7.704;2023-02-02T15:13:21;18.80;;;17.33;;
20505;SDS011;10411;48.148;7.704;2023-02-02T15:15:49;18.30;;;17.20;;
20505;SDS011;10411;48.148;7.704;2023-02-02T15:18:20;17.20;;;16.20;;
20505;SDS011;10411;48.148;7.704;2023-02-02T15:20:49;18.53;;;17.30;;
20505;SDS011;10411;48.148;7.704;2023-02-02T15:23:35;17.80;;;16.70;;
20505;SDS011;10411;48.148;7.704;2023-02-02T15:26:06;17.70;;;16.40;;
20505;SDS011;10411;48.148;7.704;2023-02-02T15:28:43;16.80;;;15.80;;
20505;SDS011;10411;48.148;7.704;2023-02-02T15:31:26;17.23;;;16.33;;
20505;SDS011;10411;48.148;7.704;2023-02-02T15:33:55;17.33;;;16.20;;
20505;SDS011;10411;48.148;7.704;2023-02-02T15:36:25;16.60;;;15.70;;
20505;SDS011;10411;48.148;7.704;2023-02-02T15:38:52;16.87;;;15.87;;
20505;SDS011;10411;48.148;7.704;2023-02-02T15:41:23;17.27;;;16.30;;
20505;SDS011;10411;48.148;7.704;2023-02-02T15:43:51;17.67;;;16.47;;
20505;SDS011;10411;48.148;7.704;2023-02-02T15:46:19;17.80;;;16.73;;
20505;SDS011;10411;48.148;7.704;2023-02-02T15:51:35;17.40;;;16.40;;
20505;SDS011;10411;48.148;7.704;2023-02-02T15:54:01;17.67;;;16.67;;
20505;SDS011;10411;48.148;7.704;2023-02-02T15:56:28;17.97;;;16.80;;
20505;SDS011;10411;48.148;7.704;2023-02-02T15:58:56;17.97;;;16.63;;
20505;SDS011;10411;48.148;7.704;2023-02-02T16:01:23;17.60;;;16.50;;
20505;SDS011;10411;48.148;7.704;2023-02-02T16:06:34;17.50;;;16.40;;
20505;SDS011;10411;48.148;7.704;2023-02-02T16:09:02;17.47;;;16.40;;
20505;SDS011;10411;48.148;7.704;2023-02-02T16:11:28;17.37;;;16.00;;
20505;SDS011;10411;48.148;7.704;2023-02-02T16:13:56;17.30;;;16.03;;
20505;SDS011;10411;48.148;7.704;2023-02-02T16:16:24;15.90;;;15.10;;
20505;SDS011;10411;48.148;7.704;2023-02-02T16:21:36;17.13;;;16.03;;
20505;SDS011;10411;48.148;7.704;2023-02-02T16:24:03;16.80;;;15.80;;
20505;SDS011;10411;48.148;7.704;2023-02-02T16:40:59;16.17;;;15.37;;
20505;SDS011;10411;48.148;7.704;2023-02-02T16:43:27;15.90;;;15.00;;
20505;SDS011;10411;48.148;7.704;2023-02-02T16:46:03;16.17;;;15.27;;
20505;SDS011;10411;48.148;7.704;2023-02-02T16:53:45;16.30;;;15.40;;
20505;SDS011;10411;48.148;7.704;2023-02-02T16:58:57;15.57;;;14.77;;
20505;SDS011;10411;48.148;7.704;2023-02-02T17:01:32;16.27;;;15.37;;
20505;SDS011;10411;48.148;7.704;2023-02-02T17:03:59;16.83;;;15.83;;
20505;SDS011;10411;48.148;7.704;2023-02-02T17:06:29;16.50;;;15.50;;
20505;SDS011;10411;48.148;7.704;2023-02-02T17:08:56;16.07;;;15.17;;
20505;SDS011;10411;48.148;7.704;2023-02-02T17:11:25;16.10;;;15.00;;
20505;SDS011;10411;48.148;7.704;2023-02-02T17:13:52;15.97;;;15.07;;
20505;SDS011;10411;48.148;7.704;2023-02-02T17:16:20;15.70;;;14.87;;
20505;SDS011;10411;48.148;7.704;2023-02-02T17:18:55;15.70;;;14.90;;
20505;SDS011;10411;48.148;7.704;2023-02-02T17:21:22;15.60;;;14.60;;
20505;SDS011;10411;48.148;7.704;2023-02-02T17:23:49;15.17;;;14.37;;
20505;SDS011;10411;48.148;7.704;2023-02-02T17:26:18;15.50;;;14.70;;
20505;SDS011;10411;48.148;7.704;2023-02-02T17:28:44;14.90;;;14.10;;